createdAt,value
2023-03-21T00:00:36.527Z,0.00
2023-03-21T00:01:36.505Z,0.00
2023-03-21T00:02:36.564Z,0.00
2023-03-21T00:03:36.796Z,0.00
2023-03-21T00:04:50.467Z,0.00
2023-03-21T00:05:36.991Z,0.00
2023-03-21T00:06:41.485Z,0.00
2023-03-21T00:07:36.439Z,0.00
2023-03-21T00:08:36.426Z,0.00
2023-03-21T00:09:36.447Z,0.00
2023-03-21T00:10:43.542Z,0.00
2023-03-21T00:11:37.393Z,0.00
2023-03-21T00:12:36.377Z,0.00
2023-03-21T00:13:36.365Z,0.00
2023-03-21T00:14:36.355Z,0.00
2023-03-21T00:15:48.460Z,0.00
2023-03-21T00:16:36.735Z,0.00
2023-03-21T00:17:41.340Z,0.00
2023-03-21T00:18:36.310Z,0.00
2023-03-21T00:19:36.296Z,0.00
2023-03-21T00:20:36.291Z,0.00
2023-03-21T00:21:48.674Z,0.00
2023-03-21T00:22:36.294Z,0.00
2023-03-21T00:23:36.262Z,0.00
2023-03-21T00:24:36.278Z,0.00
2023-03-21T00:25:36.498Z,0.00
2023-03-21T00:26:36.233Z,0.00
2023-03-21T00:27:53.202Z,0.00
2023-03-21T00:28:41.220Z,0.00
2023-03-21T00:29:36.181Z,0.00
2023-03-21T00:30:36.174Z,0.00
2023-03-21T00:31:36.169Z,0.00
2023-03-21T00:32:42.831Z,0.00
2023-03-21T00:33:36.192Z,0.00
2023-03-21T00:34:42.881Z,0.00
2023-03-21T00:35:57.944Z,0.00
2023-03-21T00:36:36.179Z,0.00
2023-03-21T00:37:36.100Z,0.00
2023-03-21T00:38:36.103Z,0.00
2023-03-21T00:39:41.140Z,0.00
2023-03-21T00:40:43.650Z,0.00
2023-03-21T00:41:43.001Z,0.00
2023-03-21T00:42:37.062Z,0.00
2023-03-21T00:43:36.024Z,0.00
2023-03-21T00:44:36.014Z,0.00
2023-03-21T00:45:36.329Z,0.00
2023-03-21T00:46:45.546Z,0.00
2023-03-21T00:47:37.071Z,0.00
2023-03-21T00:48:36.090Z,0.00
2023-03-21T00:49:35.958Z,0.00
2023-03-21T00:50:40.971Z,0.00
2023-03-21T00:51:35.953Z,0.00
2023-03-21T00:52:40.908Z,0.00
2023-03-21T00:53:35.913Z,0.00
2023-03-21T00:54:35.925Z,0.00
2023-03-21T00:55:36.135Z,0.00
2023-03-21T00:56:35.889Z,0.00
2023-03-21T00:57:42.239Z,0.00
2023-03-21T00:58:35.859Z,0.00
2023-03-21T00:59:35.845Z,0.00
2023-03-21T01:00:35.914Z,0.00
2023-03-21T01:01:40.893Z,0.00
2023-03-21T01:02:35.821Z,0.00
2023-03-21T01:03:35.815Z,0.00
2023-03-21T01:04:35.791Z,0.00
2023-03-21T01:05:36.030Z,0.00
2023-03-21T01:06:35.769Z,0.00
2023-03-21T01:07:35.763Z,0.00
2023-03-21T01:08:50.499Z,0.00
2023-03-21T01:09:35.744Z,0.00
2023-03-21T01:10:35.764Z,0.00
2023-03-21T01:11:35.711Z,0.00
2023-03-21T01:12:40.745Z,0.00
2023-03-21T01:13:38.382Z,0.00
2023-03-21T01:14:35.681Z,0.00
2023-03-21T01:15:35.945Z,0.00
2023-03-21T01:16:35.688Z,0.00
2023-03-21T01:17:35.652Z,0.00
2023-03-21T01:18:35.641Z,0.00
2023-03-21T01:19:50.583Z,0.00
2023-03-21T01:20:35.610Z,0.00
2023-03-21T01:21:35.620Z,0.00
2023-03-21T01:22:35.608Z,0.00
2023-03-21T01:23:40.604Z,0.00
2023-03-21T01:24:37.799Z,0.00
2023-03-21T01:25:35.553Z,0.00
2023-03-21T01:26:35.569Z,0.00
2023-03-21T01:27:35.558Z,0.00
2023-03-21T01:28:35.529Z,0.00
2023-03-21T01:29:35.506Z,0.00
2023-03-21T01:30:41.730Z,0.00
2023-03-21T01:31:35.507Z,0.00
2023-03-21T01:32:35.474Z,0.00
2023-03-21T01:33:35.505Z,0.00
2023-03-21T01:34:40.486Z,0.00
2023-03-21T01:35:48.009Z,0.00
2023-03-21T01:36:35.510Z,0.00
2023-03-21T01:37:35.418Z,0.00
2023-03-21T01:38:35.405Z,0.00
2023-03-21T01:39:35.436Z,0.00
2023-03-21T01:40:35.382Z,0.00
2023-03-21T01:41:44.390Z,0.00
2023-03-21T01:42:36.385Z,0.00
2023-03-21T01:43:35.349Z,0.00
2023-03-21T01:44:35.347Z,0.00
2023-03-21T01:45:40.544Z,0.00
2023-03-21T01:46:47.823Z,0.00
2023-03-21T01:47:35.305Z,0.00
2023-03-21T01:48:35.302Z,0.00
2023-03-21T01:49:35.307Z,0.00
2023-03-21T01:50:35.270Z,0.00
2023-03-21T01:51:35.283Z,0.00
2023-03-21T01:52:38.337Z,0.00
2023-03-21T01:53:35.241Z,0.00
2023-03-21T01:54:35.239Z,0.00
2023-03-21T01:55:35.510Z,0.00
2023-03-21T01:56:40.228Z,0.00
2023-03-21T01:57:43.606Z,0.00
2023-03-21T01:58:35.203Z,0.00
2023-03-21T01:59:35.171Z,0.00
2023-03-21T02:00:35.175Z,0.00
2023-03-21T02:01:35.145Z,0.00
2023-03-21T02:02:35.141Z,0.00
2023-03-21T02:03:36.421Z,0.00
2023-03-21T02:04:35.111Z,0.00
2023-03-21T02:05:35.431Z,0.00
2023-03-21T02:06:35.090Z,0.00
2023-03-21T02:07:40.099Z,0.00
2023-03-21T02:08:39.581Z,0.00
2023-03-21T02:09:35.076Z,0.00
2023-03-21T02:10:35.054Z,0.00
2023-03-21T02:11:35.030Z,0.00
2023-03-21T02:12:35.020Z,0.00
2023-03-21T02:13:35.007Z,0.00
2023-03-21T02:14:35.023Z,0.00
2023-03-21T02:15:35.437Z,0.00
2023-03-21T02:16:34.991Z,0.00
2023-03-21T02:17:34.959Z,0.00
2023-03-21T02:18:39.979Z,0.00
2023-03-21T02:19:41.672Z,0.00
2023-03-21T02:20:34.933Z,0.00
2023-03-21T02:21:34.955Z,0.00
2023-03-21T02:22:34.913Z,0.00
2023-03-21T02:23:34.899Z,0.00
2023-03-21T02:24:34.890Z,0.00
2023-03-21T02:25:34.878Z,0.00
2023-03-21T02:26:41.947Z,0.00
2023-03-21T02:27:34.870Z,0.00
2023-03-21T02:28:34.844Z,0.00
2023-03-21T02:29:39.877Z,0.00
2023-03-21T02:30:42.652Z,0.00
2023-03-21T02:31:34.894Z,0.00
2023-03-21T02:32:37.691Z,0.00
2023-03-21T02:33:34.819Z,0.00
2023-03-21T02:34:34.777Z,0.00
2023-03-21T02:35:39.136Z,0.00
2023-03-21T02:36:34.831Z,0.00
2023-03-21T02:37:38.370Z,0.00
2023-03-21T02:38:34.732Z,0.00
2023-03-21T02:39:34.764Z,0.00
2023-03-21T02:40:40.071Z,0.00
2023-03-21T02:41:40.144Z,0.00
2023-03-21T02:42:34.700Z,0.00
2023-03-21T02:43:34.684Z,0.00
2023-03-21T02:44:34.671Z,0.00
2023-03-21T02:45:34.678Z,0.00
2023-03-21T02:46:43.948Z,0.00
2023-03-21T02:47:35.636Z,0.00
2023-03-21T02:48:48.197Z,0.00
2023-03-21T02:49:35.613Z,0.00
2023-03-21T02:50:34.717Z,0.00
2023-03-21T02:51:39.701Z,0.00
2023-03-21T02:52:39.628Z,0.00
2023-03-21T02:53:35.573Z,0.00
2023-03-21T02:54:47.204Z,0.00
2023-03-21T02:55:35.550Z,0.00
2023-03-21T02:56:34.535Z,0.00
2023-03-21T02:57:42.650Z,0.00
2023-03-21T02:58:34.534Z,0.00
2023-03-21T02:59:39.428Z,0.00
2023-03-21T03:00:34.593Z,0.00
2023-03-21T03:01:34.552Z,0.00
2023-03-21T03:02:39.506Z,0.00
2023-03-21T03:03:35.106Z,0.00
2023-03-21T03:04:34.525Z,0.00
2023-03-21T03:05:34.442Z,0.00
2023-03-21T03:06:34.430Z,0.00
2023-03-21T03:07:34.456Z,0.00
2023-03-21T03:08:50.154Z,0.00
2023-03-21T03:09:35.394Z,0.00
2023-03-21T03:10:34.410Z,0.00
2023-03-21T03:11:34.385Z,0.00
2023-03-21T03:12:34.372Z,0.00
2023-03-21T03:13:39.374Z,0.00
2023-03-21T03:14:49.849Z,0.00
2023-03-21T03:15:35.390Z,0.00
2023-03-21T03:16:34.333Z,0.00
2023-03-21T03:17:34.345Z,0.00
2023-03-21T03:18:34.295Z,0.00
2023-03-21T03:19:41.694Z,0.00
2023-03-21T03:20:34.276Z,0.00
2023-03-21T03:21:34.268Z,0.00
2023-03-21T03:22:34.274Z,0.00
2023-03-21T03:23:34.235Z,0.00
2023-03-21T03:24:39.247Z,0.00
2023-03-21T03:25:42.474Z,0.00
2023-03-21T03:26:34.209Z,0.00
2023-03-21T03:27:34.204Z,0.00
2023-03-21T03:28:34.215Z,0.00
2023-03-21T03:29:34.177Z,0.00
2023-03-21T03:30:42.228Z,0.00
2023-03-21T03:31:34.186Z,0.00
2023-03-21T03:32:34.163Z,0.00
2023-03-21T03:33:34.144Z,0.00
2023-03-21T03:34:34.133Z,0.00
2023-03-21T03:35:39.206Z,0.00
2023-03-21T03:36:34.147Z,0.00
2023-03-21T03:37:34.082Z,0.00
2023-03-21T03:38:34.078Z,0.00
2023-03-21T03:39:34.058Z,0.00
2023-03-21T03:40:35.889Z,0.00
2023-03-21T03:42:00.909Z,0.00
2023-03-21T03:42:34.027Z,0.00
2023-03-21T03:43:34.020Z,0.00
2023-03-21T03:44:34.001Z,0.00
2023-03-21T03:45:33.990Z,0.00
2023-03-21T03:46:39.066Z,0.00
2023-03-21T03:47:37.932Z,0.00
2023-03-21T03:48:34.089Z,0.00
2023-03-21T03:49:33.965Z,0.00
2023-03-21T03:50:33.947Z,0.00
2023-03-21T03:51:33.930Z,0.00
2023-03-21T03:52:33.929Z,0.00
2023-03-21T03:53:33.908Z,0.00
2023-03-21T03:54:33.904Z,0.00
2023-03-21T03:55:33.910Z,0.00
2023-03-21T03:56:33.867Z,0.00
2023-03-21T03:57:38.879Z,0.00
2023-03-21T03:58:44.835Z,0.00
2023-03-21T03:59:33.836Z,0.00
2023-03-21T04:00:33.826Z,0.00
2023-03-21T04:01:33.843Z,0.00
2023-03-21T04:02:33.836Z,0.00
2023-03-21T04:03:47.724Z,0.00
2023-03-21T04:04:33.834Z,0.00
2023-03-21T04:05:33.790Z,0.00
2023-03-21T04:06:33.761Z,0.00
2023-03-21T04:07:33.760Z,0.00
2023-03-21T04:08:38.788Z,0.00
2023-03-21T04:09:43.513Z,0.00
2023-03-21T04:10:33.745Z,0.00
2023-03-21T04:11:33.704Z,0.00
2023-03-21T04:12:33.694Z,0.00
2023-03-21T04:13:33.685Z,0.00
2023-03-21T04:14:44.101Z,0.00
2023-03-21T04:15:33.671Z,0.00
2023-03-21T04:16:35.787Z,0.00
2023-03-21T04:17:33.641Z,0.00
2023-03-21T04:18:33.639Z,0.00
2023-03-21T04:19:38.649Z,0.00
2023-03-21T04:20:37.250Z,0.00
2023-03-21T04:21:33.617Z,0.00
2023-03-21T04:22:33.605Z,0.00
2023-03-21T04:23:33.571Z,0.00
2023-03-21T04:24:33.571Z,0.00
2023-03-21T04:25:34.598Z,0.00
2023-03-21T04:26:33.552Z,0.00
2023-03-21T04:27:33.528Z,0.00
2023-03-21T04:28:33.572Z,0.00
2023-03-21T04:29:33.522Z,0.00
2023-03-21T04:30:38.882Z,0.00
2023-03-21T04:31:33.498Z,0.00
2023-03-21T04:32:33.475Z,0.00
2023-03-21T04:33:33.463Z,0.00
2023-03-21T04:34:33.479Z,0.00
2023-03-21T04:35:33.494Z,0.00
2023-03-21T04:36:33.430Z,0.00
2023-03-21T04:37:33.446Z,0.00
2023-03-21T04:38:33.409Z,0.00
2023-03-21T04:39:33.406Z,0.00
2023-03-21T04:40:33.405Z,0.00
2023-03-21T04:41:38.394Z,0.00
2023-03-21T04:42:33.363Z,0.00
2023-03-21T04:43:33.351Z,0.00
2023-03-21T04:44:33.381Z,0.00
2023-03-21T04:45:33.368Z,0.00
2023-03-21T04:46:33.336Z,0.00
2023-03-21T04:47:33.308Z,0.00
2023-03-21T04:48:33.294Z,0.00
2023-03-21T04:49:33.303Z,0.00
2023-03-21T04:50:33.270Z,0.00
2023-03-21T04:51:33.262Z,0.00
2023-03-21T04:52:38.326Z,0.00
2023-03-21T04:53:33.244Z,0.00
2023-03-21T04:54:33.238Z,0.00
2023-03-21T04:55:33.216Z,0.00
2023-03-21T04:56:33.202Z,0.00
2023-03-21T04:57:33.202Z,0.00
2023-03-21T04:58:33.199Z,0.00
2023-03-21T04:59:33.186Z,0.00
2023-03-21T05:00:33.170Z,4.00
2023-03-21T05:01:33.238Z,0.00
2023-03-21T05:02:33.139Z,4.00
2023-03-21T05:03:38.164Z,0.00
2023-03-21T05:04:33.144Z,4.00
2023-03-21T05:05:33.102Z,4.00
2023-03-21T05:06:33.096Z,8.00
2023-03-21T05:07:33.083Z,8.00
2023-03-21T05:08:33.091Z,8.00
2023-03-21T05:09:33.072Z,8.00
2023-03-21T05:10:33.073Z,12.00
2023-03-21T05:11:33.037Z,12.00
2023-03-21T05:12:33.033Z,12.00
2023-03-21T05:13:33.019Z,16.00
2023-03-21T05:14:38.038Z,20.00
2023-03-21T05:15:32.993Z,24.00
2023-03-21T05:16:33.027Z,28.00
2023-03-21T05:17:32.970Z,32.00
2023-03-21T05:18:32.955Z,40.00
2023-03-21T05:19:32.946Z,44.00
2023-03-21T05:20:32.942Z,48.00
2023-03-21T05:21:32.924Z,56.00
2023-03-21T05:22:32.928Z,64.00
2023-03-21T05:23:32.907Z,68.00
2023-03-21T05:24:32.919Z,76.00
2023-03-21T05:25:38.216Z,84.00
2023-03-21T05:26:32.870Z,92.00
2023-03-21T05:27:32.858Z,104.00
2023-03-21T05:28:32.873Z,120.00
2023-03-21T05:29:32.843Z,128.00
2023-03-21T05:30:32.842Z,144.00
2023-03-21T05:31:32.814Z,156.00
2023-03-21T05:32:32.802Z,176.00
2023-03-21T05:33:32.792Z,196.00
2023-03-21T05:34:32.813Z,220.00
2023-03-21T05:35:32.782Z,240.00
2023-03-21T05:36:37.778Z,252.00
2023-03-21T05:37:32.748Z,264.00
2023-03-21T05:38:32.745Z,280.00
2023-03-21T05:39:32.726Z,296.00
2023-03-21T05:40:32.748Z,316.00
2023-03-21T05:41:32.714Z,340.00
2023-03-21T05:42:32.696Z,356.00
2023-03-21T05:43:32.682Z,380.00
2023-03-21T05:44:32.673Z,408.00
2023-03-21T05:45:32.672Z,436.00
2023-03-21T05:46:32.700Z,468.00
2023-03-21T05:47:37.661Z,500.00
2023-03-21T05:48:32.623Z,536.00
2023-03-21T05:49:32.613Z,568.00
2023-03-21T05:50:32.611Z,592.00
2023-03-21T05:51:32.591Z,612.00
2023-03-21T05:52:32.653Z,628.00
2023-03-21T05:53:32.576Z,648.00
2023-03-21T05:54:32.564Z,668.00
2023-03-21T05:55:32.558Z,704.00
2023-03-21T05:56:32.565Z,740.00
2023-03-21T05:57:32.530Z,800.00
2023-03-21T05:58:37.584Z,864.00
2023-03-21T05:59:32.508Z,924.00
2023-03-21T06:00:32.502Z,1004.00
2023-03-21T06:01:32.481Z,1088.00
2023-03-21T06:02:32.506Z,1144.00
2023-03-21T06:03:32.514Z,1180.00
2023-03-21T06:04:32.480Z,1228.00
2023-03-21T06:05:32.445Z,1244.00
2023-03-21T06:06:32.434Z,1260.00
2023-03-21T06:07:32.420Z,1312.00
2023-03-21T06:08:32.412Z,1388.00
2023-03-21T06:09:37.424Z,1468.00
2023-03-21T06:10:32.419Z,1548.00
2023-03-21T06:11:32.375Z,1620.00
2023-03-21T06:12:32.379Z,1748.00
2023-03-21T06:13:32.352Z,1876.00
2023-03-21T06:14:32.352Z,2024.00
2023-03-21T06:15:32.343Z,2208.00
2023-03-21T06:16:32.323Z,2448.00
2023-03-21T06:17:32.308Z,2616.00
2023-03-21T06:18:32.292Z,2740.00
2023-03-21T06:19:32.285Z,2912.00
2023-03-21T06:20:37.302Z,2976.00
2023-03-21T06:21:32.260Z,2872.00
2023-03-21T06:22:32.261Z,2800.00
2023-03-21T06:23:32.242Z,2944.00
2023-03-21T06:24:32.226Z,3040.00
2023-03-21T06:25:32.237Z,3024.00
2023-03-21T06:26:32.203Z,2964.00
2023-03-21T06:27:32.193Z,2960.00
2023-03-21T06:28:32.204Z,2976.00
2023-03-21T06:29:32.177Z,3064.00
2023-03-21T06:30:32.168Z,3180.00
2023-03-21T06:31:37.256Z,3160.00
2023-03-21T06:32:32.136Z,3180.00
2023-03-21T06:33:32.126Z,3204.00
2023-03-21T06:34:32.123Z,3144.00
2023-03-21T06:35:32.129Z,3152.00
2023-03-21T06:36:32.091Z,3200.00
2023-03-21T06:37:32.085Z,3180.00
2023-03-21T06:38:32.069Z,3152.00
2023-03-21T06:39:32.059Z,3252.00
2023-03-21T06:40:32.095Z,3372.00
2023-03-21T06:41:32.061Z,3432.00
2023-03-21T06:42:37.064Z,3408.00
2023-03-21T06:43:32.022Z,3296.00
2023-03-21T06:44:32.035Z,3344.00
2023-03-21T06:45:32.006Z,3488.00
2023-03-21T06:46:32.072Z,3536.00
2023-03-21T06:47:31.978Z,3432.00
2023-03-21T06:48:31.958Z,3364.00
2023-03-21T06:49:31.951Z,3396.00
2023-03-21T06:50:31.943Z,3556.00
2023-03-21T06:51:31.955Z,3756.00
2023-03-21T06:52:31.939Z,3944.00
2023-03-21T06:53:36.927Z,4052.00
2023-03-21T06:54:31.912Z,4160.00
2023-03-21T06:55:31.908Z,4280.00
2023-03-21T06:56:31.879Z,4452.00
2023-03-21T06:57:31.867Z,4628.00
2023-03-21T06:58:31.865Z,4852.00
2023-03-21T06:59:31.837Z,5312.00
2023-03-21T07:00:31.952Z,5936.00
2023-03-21T07:01:31.819Z,6288.00
2023-03-21T07:02:31.850Z,6624.00
2023-03-21T07:03:31.793Z,6848.00
2023-03-21T07:04:36.836Z,6792.00
2023-03-21T07:05:31.782Z,6492.00
2023-03-21T07:06:31.762Z,6264.00
2023-03-21T07:07:31.752Z,6128.00
2023-03-21T07:08:31.745Z,6040.00
2023-03-21T07:09:31.728Z,6044.00
2023-03-21T07:10:31.755Z,6084.00
2023-03-21T07:11:31.709Z,6176.00
2023-03-21T07:12:31.697Z,6392.00
2023-03-21T07:13:31.696Z,6528.00
2023-03-21T07:14:31.677Z,6552.00
2023-03-21T07:15:37.020Z,6484.00
2023-03-21T07:16:31.739Z,6308.00
2023-03-21T07:17:31.641Z,6148.00
2023-03-21T07:18:31.631Z,6128.00
2023-03-21T07:19:31.619Z,6208.00
2023-03-21T07:20:31.608Z,6348.00
2023-03-21T07:21:31.607Z,6464.00
2023-03-21T07:22:31.605Z,6436.00
2023-03-21T07:23:31.577Z,6564.00
2023-03-21T07:24:31.558Z,6608.00
2023-03-21T07:25:31.678Z,6680.00
2023-03-21T07:26:36.571Z,6776.00
2023-03-21T07:27:31.562Z,6880.00
2023-03-21T07:28:31.543Z,6948.00
2023-03-21T07:29:31.513Z,6832.00
2023-03-21T07:30:31.490Z,6608.00
2023-03-21T07:31:31.577Z,6220.00
2023-03-21T07:32:31.473Z,6000.00
2023-03-21T07:33:31.461Z,5824.00
2023-03-21T07:34:31.470Z,5684.00
2023-03-21T07:35:31.440Z,5572.00
2023-03-21T07:36:31.433Z,5468.00
2023-03-21T07:37:38.139Z,5400.00
2023-03-21T07:38:31.400Z,5404.00
2023-03-21T07:39:31.399Z,5304.00
2023-03-21T07:40:31.409Z,5172.00
2023-03-21T07:41:31.389Z,4996.00
2023-03-21T07:43:31.358Z,4920.00
2023-03-21T07:44:31.335Z,4980.00
2023-03-21T07:45:31.332Z,5008.00
2023-03-21T07:46:31.375Z,5076.00
2023-03-21T07:47:31.321Z,5048.00
2023-03-21T07:48:36.312Z,5052.00
2023-03-21T07:49:31.287Z,4952.00
2023-03-21T07:50:31.272Z,4968.00
2023-03-21T07:51:31.303Z,5068.00
2023-03-21T07:52:31.290Z,5208.00
2023-03-21T07:53:31.234Z,5272.00
2023-03-21T07:54:31.224Z,5352.00
2023-03-21T07:55:31.218Z,5508.00
2023-03-21T07:56:31.223Z,5900.00
2023-03-21T07:57:31.199Z,6700.00
2023-03-21T07:58:31.195Z,8660.00
2023-03-21T07:59:36.188Z,10704.00
2023-03-21T08:00:31.161Z,12524.00
2023-03-21T08:01:31.154Z,14912.00
2023-03-21T08:02:31.140Z,14784.00
2023-03-21T08:03:31.237Z,14688.00
2023-03-21T08:04:31.128Z,13504.00
2023-03-21T08:05:31.097Z,11180.00
2023-03-21T08:06:31.102Z,14636.00
2023-03-21T08:07:31.077Z,14776.00
2023-03-21T08:08:31.076Z,12548.00
2023-03-21T08:09:31.336Z,17984.00
2023-03-21T08:10:36.101Z,18400.00
2023-03-21T08:11:31.040Z,15072.00
2023-03-21T08:12:31.018Z,14620.00
2023-03-21T08:13:31.009Z,16000.00
2023-03-21T08:14:30.997Z,13600.00
2023-03-21T08:15:30.988Z,14088.00
2023-03-21T08:16:31.049Z,12344.00
2023-03-21T08:17:30.966Z,12636.00
2023-03-21T08:18:30.951Z,12020.00
2023-03-21T08:19:30.960Z,13300.00
2023-03-21T08:20:30.932Z,13828.00
2023-03-21T08:21:35.957Z,14572.00
2023-03-21T08:22:30.933Z,14620.00
2023-03-21T08:23:30.898Z,15584.00
2023-03-21T08:24:30.888Z,13892.00
2023-03-21T08:25:30.887Z,14528.00
2023-03-21T08:26:30.874Z,16992.00
2023-03-21T08:27:30.858Z,14148.00
2023-03-21T08:28:30.885Z,14676.00
2023-03-21T08:29:30.833Z,11600.00
2023-03-21T08:30:30.898Z,10016.00
2023-03-21T08:31:30.818Z,9568.00
2023-03-21T08:32:35.820Z,9452.00
2023-03-21T08:33:30.789Z,9192.00
2023-03-21T08:34:30.787Z,9212.00
2023-03-21T08:35:30.788Z,8912.00
2023-03-21T08:36:30.770Z,8860.00
2023-03-21T08:37:30.742Z,5304.00
2023-03-21T08:38:30.729Z,9164.00
2023-03-21T08:39:30.759Z,9620.00
2023-03-21T08:40:30.729Z,9960.00
2023-03-21T08:41:30.698Z,10388.00
2023-03-21T08:42:30.739Z,10056.00
2023-03-21T08:43:35.703Z,10316.00
2023-03-21T08:44:30.661Z,9968.00
2023-03-21T08:45:30.646Z,10212.00
2023-03-21T08:46:30.727Z,10480.00
2023-03-21T08:47:30.637Z,10544.00
2023-03-21T08:48:30.618Z,10736.00
2023-03-21T08:49:30.605Z,11152.00
2023-03-21T08:50:30.595Z,11720.00
2023-03-21T08:51:30.601Z,12276.00
2023-03-21T08:52:30.616Z,12676.00
2023-03-21T08:53:30.564Z,12580.00
2023-03-21T08:54:35.576Z,12244.00
2023-03-21T08:55:30.538Z,11672.00
2023-03-21T08:56:30.535Z,11168.00
2023-03-21T08:57:30.525Z,10712.00
2023-03-21T08:58:30.534Z,10320.00
2023-03-21T08:59:30.494Z,9920.00
2023-03-21T09:00:30.494Z,9672.00
2023-03-21T09:01:30.510Z,9424.00
2023-03-21T09:02:30.507Z,9268.00
2023-03-21T09:03:30.455Z,9160.00
2023-03-21T09:04:30.490Z,9152.00
2023-03-21T09:05:35.794Z,9184.00
2023-03-21T09:06:30.420Z,9196.00
2023-03-21T09:07:30.437Z,9200.00
2023-03-21T09:08:30.397Z,9152.00
2023-03-21T09:09:30.385Z,9068.00
2023-03-21T09:10:30.416Z,8928.00
2023-03-21T09:11:30.361Z,8792.00
2023-03-21T09:12:30.358Z,8572.00
2023-03-21T09:13:30.349Z,8340.00
2023-03-21T09:14:30.338Z,8008.00
2023-03-21T09:15:30.320Z,7776.00
2023-03-21T09:16:35.360Z,7676.00
2023-03-21T09:17:30.308Z,7684.00
2023-03-21T09:18:30.286Z,7824.00
2023-03-21T09:19:30.276Z,8072.00
2023-03-21T09:20:30.265Z,8380.00
2023-03-21T09:21:30.244Z,8676.00
2023-03-21T09:22:30.262Z,8936.00
2023-03-21T09:23:30.250Z,9132.00
2023-03-21T09:24:30.216Z,9300.00
2023-03-21T09:25:30.221Z,9496.00
2023-03-21T09:26:30.196Z,9704.00
2023-03-21T09:27:35.991Z,9864.00
2023-03-21T09:28:30.180Z,10032.00
2023-03-21T09:29:30.159Z,10244.00
2023-03-21T09:30:30.228Z,10412.00
2023-03-21T09:31:30.184Z,10592.00
2023-03-21T09:32:30.135Z,10744.00
2023-03-21T09:33:30.125Z,10692.00
2023-03-21T09:34:30.118Z,10644.00
2023-03-21T09:35:30.085Z,10528.00
2023-03-21T09:36:30.079Z,10504.00
2023-03-21T09:37:30.104Z,10616.00
2023-03-21T09:38:35.095Z,10800.00
2023-03-21T09:39:30.068Z,10960.00
2023-03-21T09:40:30.048Z,11232.00
2023-03-21T09:41:30.021Z,11304.00
2023-03-21T09:42:30.025Z,11448.00
2023-03-21T09:43:29.999Z,11700.00
2023-03-21T09:44:29.984Z,12372.00
2023-03-21T09:45:29.975Z,12644.00
2023-03-21T09:46:30.012Z,12252.00
2023-03-21T09:47:29.963Z,12456.00
2023-03-21T09:48:30.216Z,12488.00
2023-03-21T09:49:34.956Z,12672.00
2023-03-21T09:50:29.916Z,12680.00
2023-03-21T09:51:29.906Z,12640.00
2023-03-21T09:52:29.925Z,12620.00
2023-03-21T09:53:29.881Z,12884.00
2023-03-21T09:54:29.891Z,12948.00
2023-03-21T09:55:29.872Z,12920.00
2023-03-21T09:56:29.850Z,12868.00
2023-03-21T09:57:29.851Z,12604.00
2023-03-21T09:58:29.855Z,12164.00
2023-03-21T09:59:31.738Z,12024.00
2023-03-21T10:00:34.871Z,11944.00
2023-03-21T10:01:29.842Z,11860.00
2023-03-21T10:02:29.791Z,11764.00
2023-03-21T10:03:29.769Z,11608.00
2023-03-21T10:04:29.840Z,11504.00
2023-03-21T10:05:29.744Z,11328.00
2023-03-21T10:06:29.735Z,11168.00
2023-03-21T10:07:29.754Z,11056.00
2023-03-21T10:08:29.740Z,10916.00
2023-03-21T10:09:29.700Z,10644.00
2023-03-21T10:10:29.722Z,10376.00
2023-03-21T10:11:34.729Z,9944.00
2023-03-21T10:12:29.678Z,9452.00
2023-03-21T10:13:29.670Z,9008.00
2023-03-21T10:14:29.648Z,8560.00
2023-03-21T10:15:29.641Z,8128.00
2023-03-21T10:16:29.749Z,7788.00
2023-03-21T10:17:29.624Z,7484.00
2023-03-21T10:18:29.614Z,7216.00
2023-03-21T10:19:29.616Z,7008.00
2023-03-21T10:20:29.582Z,6872.00
2023-03-21T10:21:56.934Z,6772.00
2023-03-21T10:22:35.628Z,6784.00
2023-03-21T10:23:29.556Z,6920.00
2023-03-21T10:24:29.540Z,7240.00
2023-03-21T10:25:29.521Z,7672.00
2023-03-21T10:26:29.533Z,8168.00
2023-03-21T10:27:29.504Z,8712.00
2023-03-21T10:28:32.748Z,9260.00
2023-03-21T10:29:29.675Z,9604.00
2023-03-21T10:30:29.477Z,9848.00
2023-03-21T10:31:29.487Z,9940.00
2023-03-21T10:32:29.452Z,9912.00
2023-03-21T10:33:34.464Z,9748.00
2023-03-21T10:34:29.466Z,9412.00
2023-03-21T10:35:29.414Z,9140.00
2023-03-21T10:36:29.420Z,8928.00
2023-03-21T10:37:29.399Z,8776.00
2023-03-21T10:38:29.383Z,8664.00
2023-03-21T10:39:29.363Z,8552.00
2023-03-21T10:40:29.365Z,8452.00
2023-03-21T10:41:29.357Z,8412.00
2023-03-21T10:42:29.409Z,8432.00
2023-03-21T10:43:29.369Z,8476.00
2023-03-21T10:44:34.370Z,8500.00
2023-03-21T10:45:29.338Z,8516.00
2023-03-21T10:46:29.683Z,8508.00
2023-03-21T10:47:29.535Z,8568.00
2023-03-21T10:48:29.506Z,8552.00
2023-03-21T10:49:30.121Z,8488.00
2023-03-21T10:50:29.332Z,8376.00
2023-03-21T10:51:29.241Z,8220.00
2023-03-21T10:52:29.213Z,8040.00
2023-03-21T10:53:29.235Z,7888.00
2023-03-21T10:54:29.196Z,7764.00
2023-03-21T10:55:34.204Z,7692.00
2023-03-21T10:56:29.198Z,7656.00
2023-03-21T10:57:29.156Z,7660.00
2023-03-21T10:58:29.188Z,7684.00
2023-03-21T10:59:29.151Z,7696.00
2023-03-21T11:00:29.156Z,7724.00
2023-03-21T11:01:29.138Z,7760.00
2023-03-21T11:02:29.159Z,7800.00
2023-03-21T11:03:29.134Z,7792.00
2023-03-21T11:04:29.076Z,7756.00
2023-03-21T11:05:29.062Z,7764.00
2023-03-21T11:06:34.075Z,7852.00
2023-03-21T11:07:29.049Z,7952.00
2023-03-21T11:08:29.085Z,8100.00
2023-03-21T11:09:29.014Z,8256.00
2023-03-21T11:10:29.445Z,8308.00
2023-03-21T11:11:29.000Z,8328.00
2023-03-21T11:12:28.991Z,8336.00
2023-03-21T11:13:28.978Z,8308.00
2023-03-21T11:14:29.021Z,8244.00
2023-03-21T11:15:28.950Z,8104.00
2023-03-21T11:16:29.008Z,7856.00
2023-03-21T11:17:33.951Z,7588.00
2023-03-21T11:18:28.946Z,7308.00
2023-03-21T11:19:28.946Z,7116.00
2023-03-21T11:20:28.929Z,7072.00
2023-03-21T11:21:29.637Z,7228.00
2023-03-21T11:22:28.876Z,7508.00
2023-03-21T11:23:28.870Z,7848.00
2023-03-21T11:24:28.878Z,8148.00
2023-03-21T11:25:28.837Z,8416.00
2023-03-21T11:26:28.844Z,8664.00
2023-03-21T11:27:28.815Z,8996.00
2023-03-21T11:28:33.834Z,9452.00
2023-03-21T11:29:28.805Z,10040.00
2023-03-21T11:30:28.830Z,10532.00
2023-03-21T11:31:28.774Z,11364.00
2023-03-21T11:32:28.782Z,12224.00
2023-03-21T11:33:28.752Z,11512.00
2023-03-21T11:34:28.751Z,10768.00
2023-03-21T11:35:28.740Z,10812.00
2023-03-21T11:36:28.725Z,10784.00
2023-03-21T11:37:28.704Z,10632.00
2023-03-21T11:38:28.716Z,10628.00
2023-03-21T11:39:33.746Z,10524.00
2023-03-21T11:40:28.712Z,10648.00
2023-03-21T11:41:28.681Z,11204.00
2023-03-21T11:42:28.653Z,12004.00
2023-03-21T11:43:28.636Z,12700.00
2023-03-21T11:44:28.638Z,13968.00
2023-03-21T11:45:28.624Z,15128.00
2023-03-21T11:46:28.665Z,15532.00
2023-03-21T11:47:28.595Z,15104.00
2023-03-21T11:48:28.716Z,14884.00
2023-03-21T11:49:28.572Z,15016.00
2023-03-21T11:50:33.619Z,15788.00
2023-03-21T11:51:28.566Z,14268.00
2023-03-21T11:52:28.552Z,13628.00
2023-03-21T11:53:28.524Z,12752.00
2023-03-21T11:54:28.540Z,13292.00
2023-03-21T11:55:28.517Z,12936.00
2023-03-21T11:56:28.523Z,11048.00
2023-03-21T11:57:28.479Z,10628.00
2023-03-21T11:58:28.504Z,10972.00
2023-03-21T11:59:28.456Z,10256.00
2023-03-21T12:00:28.446Z,9932.00
2023-03-21T12:01:33.510Z,9912.00
2023-03-21T12:02:28.490Z,10044.00
2023-03-21T12:03:30.738Z,10268.00
2023-03-21T12:04:28.478Z,10452.00
2023-03-21T12:05:28.389Z,10940.00
2023-03-21T12:06:28.391Z,11000.00
2023-03-21T12:07:28.372Z,11016.00
2023-03-21T12:08:28.369Z,10776.00
2023-03-21T12:09:28.349Z,10736.00
2023-03-21T12:10:28.343Z,10664.00
2023-03-21T12:11:28.329Z,10644.00
2023-03-21T12:12:39.102Z,11016.00
2023-03-21T12:13:28.304Z,10868.00
2023-03-21T12:14:28.301Z,10852.00
2023-03-21T12:15:28.324Z,10808.00
2023-03-21T12:16:28.343Z,10720.00
2023-03-21T12:17:28.279Z,10716.00
2023-03-21T12:18:28.248Z,10836.00
2023-03-21T12:19:28.232Z,10992.00
2023-03-21T12:20:28.268Z,11344.00
2023-03-21T12:21:28.235Z,13244.00
2023-03-21T12:22:28.220Z,15120.00
2023-03-21T12:23:33.250Z,16736.00
2023-03-21T12:24:28.183Z,16864.00
2023-03-21T12:25:28.165Z,14432.00
2023-03-21T12:26:28.179Z,14144.00
2023-03-21T12:27:28.153Z,14420.00
2023-03-21T12:28:33.143Z,16896.00
2023-03-21T12:29:28.128Z,15316.00
2023-03-21T12:30:28.111Z,17024.00
2023-03-21T12:31:28.168Z,15800.00
2023-03-21T12:32:28.103Z,13892.00